sensor_id;sensor_type;location;lat;lon;timestamp;P1;durP1;ratioP1;P2;durP2;ratioP2
25915;SDS011;13719;48.188;11.618;2023-05-23T00:00:24;3.20;;;2.10;;
25915;SDS011;13719;48.188;11.618;2023-05-23T00:02:52;5.30;;;2.00;;
25915;SDS011;13719;48.188;11.618;2023-05-23T00:05:21;3.75;;;1.88;;
25915;SDS011;13719;48.188;11.618;2023-05-23T00:07:49;4.65;;;2.33;;
25915;SDS011;13719;48.188;11.618;2023-05-23T00:10:18;4.88;;;2.30;;
25915;SDS011;13719;48.188;11.618;2023-05-23T00:12:46;5.40;;;1.90;;
25915;SDS011;13719;48.188;11.618;2023-05-23T00:15:16;4.65;;;1.83;;
25915;SDS011;13719;48.188;11.618;2023-05-23T00:17:45;6.03;;;2.15;;
25915;SDS011;13719;48.188;11.618;2023-05-23T00:20:13;3.17;;;1.70;;
25915;SDS011;13719;48.188;11.618;2023-05-23T00:22:42;7.15;;;2.40;;
25915;SDS011;13719;48.188;11.618;2023-05-23T00:25:13;6.55;;;2.63;;
25915;SDS011;13719;48.188;11.618;2023-05-23T00:27:41;6.20;;;2.25;;
25915;SDS011;13719;48.188;11.618;2023-05-23T00:30:10;5.57;;;2.20;;
25915;SDS011;13719;48.188;11.618;2023-05-23T00:32:40;5.65;;;1.80;;
25915;SDS011;13719;48.188;11.618;2023-05-23T00:35:08;5.63;;;2.70;;
25915;SDS011;13719;48.188;11.618;2023-05-23T00:37:37;4.95;;;2.15;;
25915;SDS011;13719;48.188;11.618;2023-05-23T00:40:06;5.13;;;2.47;;
25915;SDS011;13719;48.188;11.618;2023-05-23T00:42:35;4.28;;;1.77;;
25915;SDS011;13719;48.188;11.618;2023-05-23T00:45:04;9.88;;;1.77;;
25915;SDS011;13719;48.188;11.618;2023-05-23T00:47:32;3.35;;;1.83;;
25915;SDS011;13719;48.188;11.618;2023-05-23T00:50:02;4.13;;;2.17;;
25915;SDS011;13719;48.188;11.618;2023-05-23T00:52:31;3.75;;;2.42;;
25915;SDS011;13719;48.188;11.618;2023-05-23T00:54:59;5.85;;;2.17;;
25915;SDS011;13719;48.188;11.618;2023-05-23T00:57:28;3.88;;;1.92;;
25915;SDS011;13719;48.188;11.618;2023-05-23T00:59:56;4.13;;;2.08;;
25915;SDS011;13719;48.188;11.618;2023-05-23T01:02:25;9.80;;;2.42;;
25915;SDS011;13719;48.188;11.618;2023-05-23T01:04:54;5.63;;;2.92;;
25915;SDS011;13719;48.188;11.618;2023-05-23T01:07:24;7.35;;;1.92;;
25915;SDS011;13719;48.188;11.618;2023-05-23T01:09:52;4.07;;;2.55;;
25915;SDS011;13719;48.188;11.618;2023-05-23T01:12:24;3.50;;;1.75;;
25915;SDS011;13719;48.188;11.618;2023-05-23T01:14:56;4.80;;;2.28;;
25915;SDS011;13719;48.188;11.618;2023-05-23T01:17:28;5.22;;;2.20;;
25915;SDS011;13719;48.188;11.618;2023-05-23T01:19:59;4.25;;;2.05;;
25915;SDS011;13719;48.188;11.618;2023-05-23T01:22:35;5.57;;;2.25;;
25915;SDS011;13719;48.188;11.618;2023-05-23T01:25:10;4.38;;;2.00;;
25915;SDS011;13719;48.188;11.618;2023-05-23T01:27:43;5.35;;;2.22;;
25915;SDS011;13719;48.188;11.618;2023-05-23T01:30:13;6.03;;;2.20;;
25915;SDS011;13719;48.188;11.618;2023-05-23T01:32:43;5.63;;;2.40;;
25915;SDS011;13719;48.188;11.618;2023-05-23T01:35:14;4.75;;;2.25;;
25915;SDS011;13719;48.188;11.618;2023-05-23T01:37:46;6.15;;;2.60;;
25915;SDS011;13719;48.188;11.618;2023-05-23T01:40:14;6.35;;;2.00;;
25915;SDS011;13719;48.188;11.618;2023-05-23T01:42:44;3.00;;;2.13;;
25915;SDS011;13719;48.188;11.618;2023-05-23T01:45:13;6.50;;;2.80;;
25915;SDS011;13719;48.188;11.618;2023-05-23T01:47:42;4.68;;;2.15;;
25915;SDS011;13719;48.188;11.618;2023-05-23T01:50:10;4.40;;;2.17;;
25915;SDS011;13719;48.188;11.618;2023-05-23T01:52:39;6.35;;;2.40;;
25915;SDS011;13719;48.188;11.618;2023-05-23T01:55:08;5.35;;;2.45;;
25915;SDS011;13719;48.188;11.618;2023-05-23T01:57:37;4.20;;;2.05;;
25915;SDS011;13719;48.188;11.618;2023-05-23T02:00:08;4.22;;;1.80;;
25915;SDS011;13719;48.188;11.618;2023-05-23T02:02:37;6.50;;;2.42;;
25915;SDS011;13719;48.188;11.618;2023-05-23T02:05:06;3.13;;;1.80;;
25915;SDS011;13719;48.188;11.618;2023-05-23T02:07:34;7.40;;;2.97;;
25915;SDS011;13719;48.188;11.618;2023-05-23T02:10:03;4.25;;;1.75;;
25915;SDS011;13719;48.188;11.618;2023-05-23T02:12:32;3.88;;;2.08;;
25915;SDS011;13719;48.188;11.618;2023-05-23T02:15:00;4.28;;;2.38;;
25915;SDS011;13719;48.188;11.618;2023-05-23T02:17:30;3.13;;;1.60;;
25915;SDS011;13719;48.188;11.618;2023-05-23T02:19:58;6.05;;;2.72;;
25915;SDS011;13719;48.188;11.618;2023-05-23T02:22:27;4.38;;;2.03;;
25915;SDS011;13719;48.188;11.618;2023-05-23T02:24:55;4.85;;;2.35;;
25915;SDS011;13719;48.188;11.618;2023-05-23T02:27:23;4.97;;;1.95;;
25915;SDS011;13719;48.188;11.618;2023-05-23T02:29:52;4.85;;;2.00;;
25915;SDS011;13719;48.188;11.618;2023-05-23T02:32:20;4.70;;;2.15;;
25915;SDS011;13719;48.188;11.618;2023-05-23T02:34:50;8.63;;;2.55;;
25915;SDS011;13719;48.188;11.618;2023-05-23T02:37:22;4.78;;;2.35;;
25915;SDS011;13719;48.188;11.618;2023-05-23T02:39:50;7.85;;;1.85;;
25915;SDS011;13719;48.188;11.618;2023-05-23T02:42:18;4.82;;;2.05;;
25915;SDS011;13719;48.188;11.618;2023-05-23T02:44:47;6.00;;;2.65;;
25915;SDS011;13719;48.188;11.618;2023-05-23T02:47:15;9.40;;;2.42;;
25915;SDS011;13719;48.188;11.618;2023-05-23T02:49:43;6.88;;;2.42;;
25915;SDS011;13719;48.188;11.618;2023-05-23T02:52:13;3.20;;;2.08;;
25915;SDS011;13719;48.188;11.618;2023-05-23T02:54:42;3.60;;;1.95;;
25915;SDS011;13719;48.188;11.618;2023-05-23T02:57:10;4.50;;;2.10;;
25915;SDS011;13719;48.188;11.618;2023-05-23T02:59:39;6.18;;;3.08;;
25915;SDS011;13719;48.188;11.618;2023-05-23T03:02:07;4.43;;;2.17;;
25915;SDS011;13719;48.188;11.618;2023-05-23T03:04:36;6.50;;;2.10;;
25915;SDS011;13719;48.188;11.618;2023-05-23T03:07:05;7.82;;;2.13;;
25915;SDS011;13719;48.188;11.618;2023-05-23T03:09:51;6.03;;;1.90;;
25915;SDS011;13719;48.188;11.618;2023-05-23T03:12:19;4.05;;;2.30;;
25915;SDS011;13719;48.188;11.618;2023-05-23T03:14:47;6.07;;;2.58;;
25915;SDS011;13719;48.188;11.618;2023-05-23T03:17:16;5.32;;;2.03;;
25915;SDS011;13719;48.188;11.618;2023-05-23T03:19:44;4.97;;;3.15;;
25915;SDS011;13719;48.188;11.618;2023-05-23T03:22:12;6.85;;;2.58;;
25915;SDS011;13719;48.188;11.618;2023-05-23T03:24:41;6.45;;;2.67;;
25915;SDS011;13719;48.188;11.618;2023-05-23T03:27:10;8.60;;;3.53;;
25915;SDS011;13719;48.188;11.618;2023-05-23T03:29:39;5.20;;;2.20;;
25915;SDS011;13719;48.188;11.618;2023-05-23T03:32:07;5.93;;;2.10;;
25915;SDS011;13719;48.188;11.618;2023-05-23T03:34:36;4.82;;;2.53;;
25915;SDS011;13719;48.188;11.618;2023-05-23T03:37:04;4.38;;;2.22;;
25915;SDS011;13719;48.188;11.618;2023-05-23T03:39:32;3.80;;;2.15;;
25915;SDS011;13719;48.188;11.618;2023-05-23T03:42:04;5.32;;;2.65;;
25915;SDS011;13719;48.188;11.618;2023-05-23T03:44:34;5.63;;;2.30;;
25915;SDS011;13719;48.188;11.618;2023-05-23T03:47:02;3.17;;;1.60;;
25915;SDS011;13719;48.188;11.618;2023-05-23T03:49:32;6.75;;;2.78;;
25915;SDS011;13719;48.188;11.618;2023-05-23T03:52:00;6.13;;;2.25;;
25915;SDS011;13719;48.188;11.618;2023-05-23T03:54:29;4.28;;;1.90;;
25915;SDS011;13719;48.188;11.618;2023-05-23T03:56:57;5.80;;;2.78;;
25915;SDS011;13719;48.188;11.618;2023-05-23T03:59:26;6.63;;;3.08;;
25915;SDS011;13719;48.188;11.618;2023-05-23T04:01:56;5.10;;;2.13;;
25915;SDS011;13719;48.188;11.618;2023-05-23T04:04:26;5.85;;;2.53;;
25915;SDS011;13719;48.188;11.618;2023-05-23T04:06:54;7.57;;;3.28;;
25915;SDS011;13719;48.188;11.618;2023-05-23T04:09:23;7.68;;;2.65;;
25915;SDS011;13719;48.188;11.618;2023-05-23T04:11:51;4.22;;;2.45;;
25915;SDS011;13719;48.188;11.618;2023-05-23T04:14:20;11.27;;;2.50;;
25915;SDS011;13719;48.188;11.618;2023-05-23T04:16:48;4.50;;;2.15;;
25915;SDS011;13719;48.188;11.618;2023-05-23T04:19:18;8.25;;;3.00;;
25915;SDS011;13719;48.188;11.618;2023-05-23T04:21:48;10.65;;;3.30;;
25915;SDS011;13719;48.188;11.618;2023-05-23T04:24:17;5.82;;;2.38;;
25915;SDS011;13719;48.188;11.618;2023-05-23T04:26:45;4.20;;;2.25;;
25915;SDS011;13719;48.188;11.618;2023-05-23T04:29:13;4.25;;;2.53;;
25915;SDS011;13719;48.188;11.618;2023-05-23T04:31:42;3.97;;;2.20;;
25915;SDS011;13719;48.188;11.618;2023-05-23T04:34:11;6.93;;;3.15;;
25915;SDS011;13719;48.188;11.618;2023-05-23T04:36:41;6.38;;;2.30;;
25915;SDS011;13719;48.188;11.618;2023-05-23T04:39:10;4.25;;;1.65;;
25915;SDS011;13719;48.188;11.618;2023-05-23T04:41:39;5.30;;;2.17;;
25915;SDS011;13719;48.188;11.618;2023-05-23T04:44:07;6.32;;;2.47;;
25915;SDS011;13719;48.188;11.618;2023-05-23T04:46:36;5.32;;;2.35;;
25915;SDS011;13719;48.188;11.618;2023-05-23T04:49:07;5.40;;;2.75;;
25915;SDS011;13719;48.188;11.618;2023-05-23T04:51:36;5.50;;;2.90;;
25915;SDS011;13719;48.188;11.618;2023-05-23T04:54:06;4.35;;;1.98;;
25915;SDS011;13719;48.188;11.618;2023-05-23T04:56:34;6.75;;;2.25;;
25915;SDS011;13719;48.188;11.618;2023-05-23T04:59:02;7.93;;;2.88;;
25915;SDS011;13719;48.188;11.618;2023-05-23T05:01:31;5.95;;;2.53;;
25915;SDS011;13719;48.188;11.618;2023-05-23T05:03:59;8.75;;;2.83;;
25915;SDS011;13719;48.188;11.618;2023-05-23T05:06:28;5.78;;;3.50;;
25915;SDS011;13719;48.188;11.618;2023-05-23T05:08:59;8.18;;;2.80;;
25915;SDS011;13719;48.188;11.618;2023-05-23T05:11:29;5.22;;;2.55;;
25915;SDS011;13719;48.188;11.618;2023-05-23T05:13:57;6.05;;;2.15;;
25915;SDS011;13719;48.188;11.618;2023-05-23T05:16:26;10.38;;;3.15;;
25915;SDS011;13719;48.188;11.618;2023-05-23T05:18:54;8.25;;;2.67;;
25915;SDS011;13719;48.188;11.618;2023-05-23T05:21:23;8.02;;;3.42;;
25915;SDS011;13719;48.188;11.618;2023-05-23T05:23:51;9.38;;;3.58;;
25915;SDS011;13719;48.188;11.618;2023-05-23T05:26:19;6.68;;;3.10;;
25915;SDS011;13719;48.188;11.618;2023-05-23T05:28:49;10.90;;;3.17;;
25915;SDS011;13719;48.188;11.618;2023-05-23T05:31:18;6.68;;;2.63;;
25915;SDS011;13719;48.188;11.618;2023-05-23T05:33:47;6.65;;;3.47;;
25915;SDS011;13719;48.188;11.618;2023-05-23T05:36:16;6.15;;;3.33;;
25915;SDS011;13719;48.188;11.618;2023-05-23T05:38:44;5.07;;;2.72;;
25915;SDS011;13719;48.188;11.618;2023-05-23T05:41:12;5.82;;;2.30;;
25915;SDS011;13719;48.188;11.618;2023-05-23T05:43:41;8.10;;;2.88;;
25915;SDS011;13719;48.188;11.618;2023-05-23T05:46:11;9.63;;;3.70;;
25915;SDS011;13719;48.188;11.618;2023-05-23T05:48:39;9.40;;;3.70;;
25915;SDS011;13719;48.188;11.618;2023-05-23T05:51:07;7.28;;;3.05;;
25915;SDS011;13719;48.188;11.618;2023-05-23T05:53:36;5.78;;;2.58;;
25915;SDS011;13719;48.188;11.618;2023-05-23T05:56:04;8.85;;;3.13;;
25915;SDS011;13719;48.188;11.618;2023-05-23T05:58:34;8.18;;;3.70;;
25915;SDS011;13719;48.188;11.618;2023-05-23T06:01:03;6.40;;;3.15;;
25915;SDS011;13719;48.188;11.618;2023-05-23T06:03:32;9.48;;;3.60;;
25915;SDS011;13719;48.188;11.618;2023-05-23T06:06:01;7.70;;;3.00;;
25915;SDS011;13719;48.188;11.618;2023-05-23T06:08:29;13.15;;;3.90;;
25915;SDS011;13719;48.188;11.618;2023-05-23T06:10:58;9.13;;;3.83;;
25915;SDS011;13719;48.188;11.618;2023-05-23T06:13:26;6.30;;;2.70;;
25915;SDS011;13719;48.188;11.618;2023-05-23T06:15:55;8.88;;;4.00;;
25915;SDS011;13719;48.188;11.618;2023-05-23T06:18:23;7.78;;;2.97;;
25915;SDS011;13719;48.188;11.618;2023-05-23T06:20:53;8.02;;;3.65;;
25915;SDS011;13719;48.188;11.618;2023-05-23T06:23:21;8.98;;;3.80;;
25915;SDS011;13719;48.188;11.618;2023-05-23T06:25:50;7.30;;;3.20;;
25915;SDS011;13719;48.188;11.618;2023-05-23T06:28:18;7.88;;;3.53;;
25915;SDS011;13719;48.188;11.618;2023-05-23T06:30:46;7.03;;;3.38;;
25915;SDS011;13719;48.188;11.618;2023-05-23T06:33:15;14.25;;;4.90;;
25915;SDS011;13719;48.188;11.618;2023-05-23T06:35:43;10.10;;;3.92;;
25915;SDS011;13719;48.188;11.618;2023-05-23T06:38:13;14.15;;;3.65;;
25915;SDS011;13719;48.188;11.618;2023-05-23T06:40:43;10.10;;;3.20;;
25915;SDS011;13719;48.188;11.618;2023-05-23T06:43:11;8.45;;;3.90;;
25915;SDS011;13719;48.188;11.618;2023-05-23T06:45:40;9.05;;;3.15;;
25915;SDS011;13719;48.188;11.618;2023-05-23T06:48:08;10.45;;;4.05;;
25915;SDS011;13719;48.188;11.618;2023-05-23T06:50:36;5.85;;;3.28;;
25915;SDS011;13719;48.188;11.618;2023-05-23T06:53:05;12.10;;;4.10;;
25915;SDS011;13719;48.188;11.618;2023-05-23T06:55:35;13.00;;;3.40;;
25915;SDS011;13719;48.188;11.618;2023-05-23T06:58:04;8.13;;;3.55;;
25915;SDS011;13719;48.188;11.618;2023-05-23T07:00:32;9.88;;;4.55;;
25915;SDS011;13719;48.188;11.618;2023-05-23T07:03:01;7.47;;;3.45;;
25915;SDS011;13719;48.188;11.618;2023-05-23T07:05:30;9.30;;;3.75;;
25915;SDS011;13719;48.188;11.618;2023-05-23T07:07:59;10.90;;;3.90;;
25915;SDS011;13719;48.188;11.618;2023-05-23T07:10:28;9.43;;;4.57;;
25915;SDS011;13719;48.188;11.618;2023-05-23T07:12:57;10.50;;;4.13;;
25915;SDS011;13719;48.188;11.618;2023-05-23T07:15:26;6.97;;;3.15;;
25915;SDS011;13719;48.188;11.618;2023-05-23T07:17:54;12.63;;;3.42;;
25915;SDS011;13719;48.188;11.618;2023-05-23T07:20:23;9.40;;;3.40;;
25915;SDS011;13719;48.188;11.618;2023-05-23T07:22:51;9.00;;;3.47;;
25915;SDS011;13719;48.188;11.618;2023-05-23T07:25:19;11.27;;;4.53;;
25915;SDS011;13719;48.188;11.618;2023-05-23T07:27:48;11.60;;;3.85;;
25915;SDS011;13719;48.188;11.618;2023-05-23T07:30:21;7.70;;;3.85;;
25915;SDS011;13719;48.188;11.618;2023-05-23T07:32:49;9.75;;;3.63;;
25915;SDS011;13719;48.188;11.618;2023-05-23T07:35:18;10.15;;;4.45;;
25915;SDS011;13719;48.188;11.618;2023-05-23T07:37:51;11.85;;;4.38;;
25915;SDS011;13719;48.188;11.618;2023-05-23T07:40:19;8.63;;;4.38;;
25915;SDS011;13719;48.188;11.618;2023-05-23T07:42:49;8.43;;;3.53;;
25915;SDS011;13719;48.188;11.618;2023-05-23T07:45:18;11.95;;;4.25;;
25915;SDS011;13719;48.188;11.618;2023-05-23T07:47:48;13.75;;;5.32;;
25915;SDS011;13719;48.188;11.618;2023-05-23T07:50:17;13.02;;;4.25;;
25915;SDS011;13719;48.188;11.618;2023-05-23T07:52:45;10.80;;;4.07;;
25915;SDS011;13719;48.188;11.618;2023-05-23T07:55:14;8.90;;;3.95;;
25915;SDS011;13719;48.188;11.618;2023-05-23T07:57:42;15.77;;;4.55;;
25915;SDS011;13719;48.188;11.618;2023-05-23T08:00:11;11.10;;;4.35;;
25915;SDS011;13719;48.188;11.618;2023-05-23T08:02:40;10.73;;;3.90;;
25915;SDS011;13719;48.188;11.618;2023-05-23T08:05:10;8.00;;;3.95;;
25915;SDS011;13719;48.188;11.618;2023-05-23T08:07:38;9.82;;;3.65;;
25915;SDS011;13719;48.188;11.618;2023-05-23T08:10:07;8.82;;;4.68;;
25915;SDS011;13719;48.188;11.618;2023-05-23T08:12:36;10.77;;;4.63;;
25915;SDS011;13719;48.188;11.618;2023-05-23T08:15:04;9.45;;;3.97;;
25915;SDS011;13719;48.188;11.618;2023-05-23T08:17:33;11.77;;;4.25;;
25915;SDS011;13719;48.188;11.618;2023-05-23T08:20:02;14.82;;;5.05;;
25915;SDS011;13719;48.188;11.618;2023-05-23T08:22:32;7.57;;;3.53;;
25915;SDS011;13719;48.188;11.618;2023-05-23T08:25:01;12.77;;;4.20;;
25915;SDS011;13719;48.188;11.618;2023-05-23T08:27:29;12.20;;;4.30;;
25915;SDS011;13719;48.188;11.618;2023-05-23T08:29:59;11.13;;;5.15;;
25915;SDS011;13719;48.188;11.618;2023-05-23T08:32:28;15.73;;;5.72;;
25915;SDS011;13719;48.188;11.618;2023-05-23T08:34:56;10.43;;;4.07;;
25915;SDS011;13719;48.188;11.618;2023-05-23T08:37:25;16.67;;;4.13;;
25915;SDS011;13719;48.188;11.618;2023-05-23T08:39:55;8.98;;;4.35;;
25915;SDS011;13719;48.188;11.618;2023-05-23T08:42:23;23.35;;;6.03;;
25915;SDS011;13719;48.188;11.618;2023-05-23T08:44:51;23.15;;;7.05;;
25915;SDS011;13719;48.188;11.618;2023-05-23T08:47:20;13.80;;;4.60;;
25915;SDS011;13719;48.188;11.618;2023-05-23T08:49:49;11.95;;;4.40;;
25915;SDS011;13719;48.188;11.618;2023-05-23T08:52:17;10.68;;;4.47;;
25915;SDS011;13719;48.188;11.618;2023-05-23T08:54:48;12.38;;;4.20;;
25915;SDS011;13719;48.188;11.618;2023-05-23T08:57:19;8.90;;;3.83;;
25915;SDS011;13719;48.188;11.618;2023-05-23T08:59:47;8.10;;;4.03;;
25915;SDS011;13719;48.188;11.618;2023-05-23T09:02:16;12.45;;;4.47;;
25915;SDS011;13719;48.188;11.618;2023-05-23T09:04:45;10.07;;;4.10;;
25915;SDS011;13719;48.188;11.618;2023-05-23T09:07:13;12.75;;;4.10;;
25915;SDS011;13719;48.188;11.618;2023-05-23T09:09:43;10.25;;;4.40;;
25915;SDS011;13719;48.188;11.618;2023-05-23T09:12:14;9.85;;;4.38;;
25915;SDS011;13719;48.188;11.618;2023-05-23T09:14:44;9.20;;;4.07;;
25915;SDS011;13719;48.188;11.618;2023-05-23T09:17:14;13.68;;;4.88;;
25915;SDS011;13719;48.188;11.618;2023-05-23T09:19:43;8.50;;;3.95;;
25915;SDS011;13719;48.188;11.618;2023-05-23T09:22:12;9.45;;;4.25;;
25915;SDS011;13719;48.188;11.618;2023-05-23T09:24:40;11.30;;;4.90;;
25915;SDS011;13719;48.188;11.618;2023-05-23T09:27:09;11.23;;;4.60;;
25915;SDS011;13719;48.188;11.618;2023-05-23T09:29:38;13.27;;;4.47;;
25915;SDS011;13719;48.188;11.618;2023-05-23T09:32:11;14.48;;;3.97;;
25915;SDS011;13719;48.188;11.618;2023-05-23T09:34:40;9.45;;;4.13;;
25915;SDS011;13719;48.188;11.618;2023-05-23T09:37:10;15.98;;;4.88;;
25915;SDS011;13719;48.188;11.618;2023-05-23T09:39:45;9.52;;;3.63;;
25915;SDS011;13719;48.188;11.618;2023-05-23T09:42:17;8.75;;;3.85;;
25915;SDS011;13719;48.188;11.618;2023-05-23T09:44:45;14.30;;;4.35;;
25915;SDS011;13719;48.188;11.618;2023-05-23T09:47:15;10.15;;;4.40;;
25915;SDS011;13719;48.188;11.618;2023-05-23T09:49:44;9.85;;;3.58;;
25915;SDS011;13719;48.188;11.618;2023-05-23T09:52:13;9.90;;;4.70;;
25915;SDS011;13719;48.188;11.618;2023-05-23T09:54:41;16.95;;;4.95;;
25915;SDS011;13719;48.188;11.618;2023-05-23T09:57:13;10.50;;;4.63;;
25915;SDS011;13719;48.188;11.618;2023-05-23T09:59:51;11.05;;;4.15;;
25915;SDS011;13719;48.188;11.618;2023-05-23T10:02:29;13.32;;;4.70;;
25915;SDS011;13719;48.188;11.618;2023-05-23T10:05:03;13.25;;;4.53;;
25915;SDS011;13719;48.188;11.618;2023-05-23T10:07:34;12.98;;;5.25;;
25915;SDS011;13719;48.188;11.618;2023-05-23T10:10:03;11.20;;;4.22;;
25915;SDS011;13719;48.188;11.618;2023-05-23T10:12:41;11.55;;;4.38;;
25915;SDS011;13719;48.188;11.618;2023-05-23T10:15:12;10.48;;;4.60;;
25915;SDS011;13719;48.188;11.618;2023-05-23T10:20:30;8.18;;;4.20;;
25915;SDS011;13719;48.188;11.618;2023-05-23T10:22:59;11.60;;;4.30;;
25915;SDS011;13719;48.188;11.618;2023-05-23T10:25:27;9.07;;;4.00;;
25915;SDS011;13719;48.188;11.618;2023-05-23T10:27:56;11.93;;;4.10;;
25915;SDS011;13719;48.188;11.618;2023-05-23T10:30:29;17.25;;;4.68;;
25915;SDS011;13719;48.188;11.618;2023-05-23T10:32:58;12.57;;;4.65;;
25915;SDS011;13719;48.188;11.618;2023-05-23T10:35:31;7.32;;;4.22;;
25915;SDS011;13719;48.188;11.618;2023-05-23T10:38:06;9.20;;;3.92;;
25915;SDS011;13719;48.188;11.618;2023-05-23T10:40:42;10.32;;;4.25;;
25915;SDS011;13719;48.188;11.618;2023-05-23T10:43:15;10.43;;;4.38;;
25915;SDS011;13719;48.188;11.618;2023-05-23T10:45:45;12.68;;;4.25;;
25915;SDS011;13719;48.188;11.618;2023-05-23T10:48:18;15.68;;;5.03;;
25915;SDS011;13719;48.188;11.618;2023-05-23T10:51:01;11.68;;;5.13;;
25915;SDS011;13719;48.188;11.618;2023-05-23T10:53:30;15.18;;;5.28;;
25915;SDS011;13719;48.188;11.618;2023-05-23T10:55:59;15.77;;;5.05;;
25915;SDS011;13719;48.188;11.618;2023-05-23T10:58:28;12.40;;;4.07;;
25915;SDS011;13719;48.188;11.618;2023-05-23T11:00:58;10.68;;;3.83;;
25915;SDS011;13719;48.188;11.618;2023-05-23T11:03:31;10.07;;;3.45;;
25915;SDS011;13719;48.188;11.618;2023-05-23T11:06:02;12.38;;;3.92;;
25915;SDS011;13719;48.188;11.618;2023-05-23T11:08:37;7.93;;;3.28;;
25915;SDS011;13719;48.188;11.618;2023-05-23T11:11:14;6.75;;;3.40;;
25915;SDS011;13719;48.188;11.618;2023-05-23T11:13:56;7.05;;;2.67;;
25915;SDS011;13719;48.188;11.618;2023-05-23T11:16:26;8.68;;;3.90;;
25915;SDS011;13719;48.188;11.618;2023-05-23T11:21:44;8.65;;;3.53;;
25915;SDS011;13719;48.188;11.618;2023-05-23T11:24:12;7.00;;;3.33;;
25915;SDS011;13719;48.188;11.618;2023-05-23T11:26:49;8.73;;;4.03;;
25915;SDS011;13719;48.188;11.618;2023-05-23T11:29:19;9.13;;;3.00;;
25915;SDS011;13719;48.188;11.618;2023-05-23T11:31:48;6.57;;;3.22;;
25915;SDS011;13719;48.188;11.618;2023-05-23T11:34:16;6.43;;;3.00;;
25915;SDS011;13719;48.188;11.618;2023-05-23T11:36:46;7.80;;;3.30;;
25915;SDS011;13719;48.188;11.618;2023-05-23T11:39:15;5.72;;;3.03;;
25915;SDS011;13719;48.188;11.618;2023-05-23T11:41:44;5.88;;;2.60;;
25915;SDS011;13719;48.188;11.618;2023-05-23T11:44:17;8.35;;;3.55;;
25915;SDS011;13719;48.188;11.618;2023-05-23T11:46:57;8.68;;;3.40;;
25915;SDS011;13719;48.188;11.618;2023-05-23T11:49:26;10.00;;;3.38;;
25915;SDS011;13719;48.188;11.618;2023-05-23T11:51:56;8.65;;;4.32;;
25915;SDS011;13719;48.188;11.618;2023-05-23T11:54:25;8.07;;;3.38;;
25915;SDS011;13719;48.188;11.618;2023-05-23T11:56:54;9.80;;;3.42;;
25915;SDS011;13719;48.188;11.618;2023-05-23T11:59:23;4.82;;;2.78;;
25915;SDS011;13719;48.188;11.618;2023-05-23T12:01:52;6.45;;;3.22;;
25915;SDS011;13719;48.188;11.618;2023-05-23T12:04:20;8.80;;;3.40;;
25915;SDS011;13719;48.188;11.618;2023-05-23T12:06:50;6.63;;;3.10;;
25915;SDS011;13719;48.188;11.618;2023-05-23T12:09:20;5.32;;;2.80;;
25915;SDS011;13719;48.188;11.618;2023-05-23T12:11:48;4.60;;;3.22;;
25915;SDS011;13719;48.188;11.618;2023-05-23T12:14:17;8.50;;;2.97;;
25915;SDS011;13719;48.188;11.618;2023-05-23T12:16:45;7.20;;;3.40;;
25915;SDS011;13719;48.188;11.618;2023-05-23T12:19:15;6.03;;;3.20;;
25915;SDS011;13719;48.188;11.618;2023-05-23T12:21:44;7.32;;;3.60;;
25915;SDS011;13719;48.188;11.618;2023-05-23T12:24:16;11.70;;;3.28;;
25915;SDS011;13719;48.188;11.618;2023-05-23T12:26:47;7.15;;;2.85;;
25915;SDS011;13719;48.188;11.618;2023-05-23T12:29:17;8.93;;;3.38;;
25915;SDS011;13719;48.188;11.618;2023-05-23T12:31:49;5.97;;;2.85;;
25915;SDS011;13719;48.188;11.618;2023-05-23T12:34:21;6.18;;;3.20;;
25915;SDS011;13719;48.188;11.618;2023-05-23T12:36:49;4.72;;;2.53;;
25915;SDS011;13719;48.188;11.618;2023-05-23T12:39:42;6.70;;;2.47;;
25915;SDS011;13719;48.188;11.618;2023-05-23T12:42:12;5.55;;;3.00;;
25915;SDS011;13719;48.188;11.618;2023-05-23T12:44:40;5.03;;;2.95;;
25915;SDS011;13719;48.188;11.618;2023-05-23T12:47:11;7.10;;;3.15;;
25915;SDS011;13719;48.188;11.618;2023-05-23T12:49:40;7.47;;;2.58;;
25915;SDS011;13719;48.188;11.618;2023-05-23T12:52:10;12.98;;;2.97;;
25915;SDS011;13719;48.188;11.618;2023-05-23T12:54:38;5.25;;;2.75;;
25915;SDS011;13719;48.188;11.618;2023-05-23T12:57:06;5.72;;;2.80;;
25915;SDS011;13719;48.188;11.618;2023-05-23T12:59:36;9.50;;;3.50;;
25915;SDS011;13719;48.188;11.618;2023-05-23T13:02:05;10.48;;;2.88;;
25915;SDS011;13719;48.188;11.618;2023-05-23T13:04:33;7.22;;;3.40;;
25915;SDS011;13719;48.188;11.618;2023-05-23T13:07:02;9.30;;;3.60;;
25915;SDS011;13719;48.188;11.618;2023-05-23T13:09:30;8.95;;;2.80;;
25915;SDS011;13719;48.188;11.618;2023-05-23T13:11:58;7.60;;;3.17;;
25915;SDS011;13719;48.188;11.618;2023-05-23T13:14:27;6.65;;;3.20;;
25915;SDS011;13719;48.188;11.618;2023-05-23T13:16:57;5.40;;;2.90;;
25915;SDS011;13719;48.188;11.618;2023-05-23T13:19:26;7.50;;;2.63;;
25915;SDS011;13719;48.188;11.618;2023-05-23T13:21:54;9.50;;;3.70;;
25915;SDS011;13719;48.188;11.618;2023-05-23T13:24:23;8.30;;;3.47;;
25915;SDS011;13719;48.188;11.618;2023-05-23T13:26:51;4.60;;;2.40;;
25915;SDS011;13719;48.188;11.618;2023-05-23T13:29:19;5.38;;;2.53;;
25915;SDS011;13719;48.188;11.618;2023-05-23T13:31:48;4.93;;;2.53;;
25915;SDS011;13719;48.188;11.618;2023-05-23T13:34:18;9.63;;;2.95;;
25915;SDS011;13719;48.188;11.618;2023-05-23T13:36:47;7.45;;;3.25;;
25915;SDS011;13719;48.188;11.618;2023-05-23T13:39:15;5.90;;;2.83;;
25915;SDS011;13719;48.188;11.618;2023-05-23T13:41:45;7.43;;;2.97;;
25915;SDS011;13719;48.188;11.618;2023-05-23T13:44:13;7.82;;;3.25;;
25915;SDS011;13719;48.188;11.618;2023-05-23T13:46:42;3.38;;;2.08;;
25915;SDS011;13719;48.188;11.618;2023-05-23T13:49:10;7.50;;;2.75;;
25915;SDS011;13719;48.188;11.618;2023-05-23T13:51:40;4.28;;;2.35;;
25915;SDS011;13719;48.188;11.618;2023-05-23T13:54:09;5.60;;;2.65;;
25915;SDS011;13719;48.188;11.618;2023-05-23T13:56:38;7.57;;;3.33;;
25915;SDS011;13719;48.188;11.618;2023-05-23T13:59:07;4.32;;;2.75;;
25915;SDS011;13719;48.188;11.618;2023-05-23T14:01:35;4.72;;;2.42;;
25915;SDS011;13719;48.188;11.618;2023-05-23T14:04:03;5.47;;;3.30;;
25915;SDS011;13719;48.188;11.618;2023-05-23T14:06:32;4.85;;;2.80;;
25915;SDS011;13719;48.188;11.618;2023-05-23T14:09:03;6.97;;;2.83;;
25915;SDS011;13719;48.188;11.618;2023-05-23T14:11:32;5.15;;;2.88;;
25915;SDS011;13719;48.188;11.618;2023-05-23T14:14:00;8.40;;;3.72;;
25915;SDS011;13719;48.188;11.618;2023-05-23T14:16:29;6.03;;;2.25;;
25915;SDS011;13719;48.188;11.618;2023-05-23T14:18:57;8.05;;;2.95;;
25915;SDS011;13719;48.188;11.618;2023-05-23T14:21:26;5.22;;;2.67;;
25915;SDS011;13719;48.188;11.618;2023-05-23T14:23:54;5.18;;;2.53;;
25915;SDS011;13719;48.188;11.618;2023-05-23T14:26:24;5.28;;;2.45;;
25915;SDS011;13719;48.188;11.618;2023-05-23T14:28:52;4.63;;;2.50;;
25915;SDS011;13719;48.188;11.618;2023-05-23T14:31:21;7.72;;;2.88;;
25915;SDS011;13719;48.188;11.618;2023-05-23T14:33:49;3.97;;;2.13;;
25915;SDS011;13719;48.188;11.618;2023-05-23T14:36:18;4.70;;;2.10;;
25915;SDS011;13719;48.188;11.618;2023-05-23T14:38:46;4.25;;;2.22;;
25915;SDS011;13719;48.188;11.618;2023-05-23T14:41:16;8.15;;;2.22;;
25915;SDS011;13719;48.188;11.618;2023-05-23T14:43:46;7.35;;;2.47;;
25915;SDS011;13719;48.188;11.618;2023-05-23T14:46:15;5.60;;;2.58;;
25915;SDS011;13719;48.188;11.618;2023-05-23T14:48:44;11.35;;;2.55;;